Time,TemperatureF,DewpointF,PressureIn,WindDirection,WindDirectionDegrees,WindSpeedMPH,WindSpeedGustMPH,Humidity,HourlyPrecipIn,Conditions,Clouds,dailyrainin,SolarRadiationWatts/m^2,SoftwareType,DateUTC
2013-03-17 00:01:00,52.0,42.0,-100.00,WNW,299,4.0,10.0,69,0.00,,,0.62,0.000000,,2013-03-17 04:01:00,
2013-03-17 00:33:00,52.0,42.0,-100.00,WNW,299,4.0,10.0,69,0.00,,,0.62,0.000000,,2013-03-17 04:33:00,
2013-03-17 00:43:00,52.0,42.0,-100.00,WNW,299,4.0,10.0,69,0.00,,,0.62,0.000000,,2013-03-17 04:43:00,
2013-03-17 00:53:00,52.0,42.0,-100.00,WNW,299,4.0,10.0,69,0.00,,,0.62,0.000000,,2013-03-17 04:53:00,
2013-03-17 01:01:00,51.0,40.0,-100.00,NW,307,4.0,7.0,66,0.00,,,0.62,0.000000,,2013-03-17 05:01:00,
2013-03-17 01:32:00,51.0,40.0,-100.00,NW,307,4.0,7.0,66,0.00,,,0.62,0.000000,,2013-03-17 05:32:00,
2013-03-17 01:42:00,51.0,40.0,-100.00,NW,307,4.0,7.0,66,0.00,,,0.62,0.000000,,2013-03-17 05:42:00,
2013-03-17 01:52:00,51.0,40.0,-100.00,NW,307,4.0,7.0,66,0.00,,,0.62,0.000000,,2013-03-17 05:52:00,
2013-03-17 02:01:00,50.0,37.0,-100.00,West,272,3.0,9.0,61,0.00,,,0.62,0.000000,,2013-03-17 06:01:00,
2013-03-17 02:32:00,50.0,37.0,-100.00,West,272,3.0,9.0,61,0.00,,,0.62,0.000000,,2013-03-17 06:32:00,
2013-03-17 02:42:00,50.0,37.0,-100.00,West,272,3.0,9.0,61,0.00,,,0.62,0.000000,,2013-03-17 06:42:00,
2013-03-17 02:53:00,50.0,37.0,-100.00,West,272,3.0,9.0,61,0.00,,,0.62,0.000000,,2013-03-17 06:53:00,
2013-03-17 03:01:00,49.0,37.0,-100.00,WSW,238,3.0,9.0,62,0.00,,,0.62,0.000000,,2013-03-17 07:01:00,
2013-03-17 03:22:00,49.0,37.0,-100.00,WSW,238,3.0,9.0,62,0.00,,,0.62,0.000000,,2013-03-17 07:22:00,
2013-03-17 03:32:00,49.0,37.0,-100.00,WSW,238,3.0,9.0,62,0.00,,,0.62,0.000000,,2013-03-17 07:32:00,
2013-03-17 03:42:00,49.0,37.0,-100.00,WSW,238,3.0,9.0,62,0.00,,,0.62,0.000000,,2013-03-17 07:42:00,
2013-03-17 03:52:00,49.0,37.0,-100.00,WSW,238,3.0,9.0,62,0.00,,,0.62,0.000000,,2013-03-17 07:52:00,
2013-03-17 04:01:00,47.0,36.0,-100.00,North,354,2.0,11.0,66,0.00,,,0.62,0.000000,,2013-03-17 08:01:00,
2013-03-17 04:33:00,47.0,36.0,-100.00,North,354,2.0,11.0,66,0.00,,,0.62,0.000000,,2013-03-17 08:33:00,
2013-03-17 04:42:00,47.0,36.0,-100.00,North,354,2.0,11.0,66,0.00,,,0.62,0.000000,,2013-03-17 08:42:00,
2013-03-17 04:52:00,47.0,36.0,-100.00,North,354,2.0,11.0,66,0.00,,,0.62,0.000000,,2013-03-17 08:52:00,
2013-03-17 05:01:00,45.0,36.0,-100.00,SW,228,2.0,4.0,70,0.00,,,0.62,0.000000,,2013-03-17 09:01:00,
2013-03-17 05:22:00,45.0,36.0,-100.00,SW,228,2.0,4.0,70,0.00,,,0.62,0.000000,,2013-03-17 09:22:00,
2013-03-17 05:33:00,45.0,36.0,-100.00,SW,228,2.0,4.0,70,0.00,,,0.62,0.000000,,2013-03-17 09:33:00,
2013-03-17 05:43:00,45.0,36.0,-100.00,SW,228,2.0,4.0,70,0.00,,,0.62,0.000000,,2013-03-17 09:43:00,
2013-03-17 05:53:00,45.0,36.0,-100.00,SW,228,2.0,4.0,70,0.00,,,0.62,0.000000,,2013-03-17 09:53:00,
2013-03-17 06:01:00,45.0,38.0,-100.00,NNE,33,1.0,4.0,77,0.00,,,0.61,0.000000,,2013-03-17 10:01:00,
2013-03-17 06:33:00,45.0,38.0,-100.00,NNE,33,1.0,4.0,77,0.00,,,0.61,0.000000,,2013-03-17 10:33:00,
2013-03-17 06:42:00,45.0,38.0,-100.00,NNE,33,1.0,4.0,77,0.00,,,0.61,0.000000,,2013-03-17 10:42:00,
2013-03-17 06:53:00,45.0,38.0,-100.00,NNE,33,1.0,4.0,77,0.00,,,0.61,0.000000,,2013-03-17 10:53:00,
2013-03-17 07:01:00,45.0,39.0,-100.00,SW,222,3.0,5.0,79,0.00,,,0.52,0.000000,,2013-03-17 11:01:00,
2013-03-17 07:22:00,45.0,39.0,-100.00,SW,222,3.0,5.0,79,0.00,,,0.52,0.000000,,2013-03-17 11:22:00,
2013-03-17 07:32:00,45.0,39.0,-100.00,SW,222,3.0,5.0,79,0.00,,,0.52,0.000000,,2013-03-17 11:32:00,
2013-03-17 07:43:00,45.0,39.0,-100.00,SW,222,3.0,5.0,79,0.00,,,0.52,0.000000,,2013-03-17 11:43:00,
2013-03-17 07:52:00,45.0,39.0,-100.00,SW,222,3.0,5.0,79,0.00,,,0.52,0.000000,,2013-03-17 11:52:00,
2013-03-17 08:01:00,45.0,40.0,-100.00,SW,215,3.0,5.0,83,0.00,,,0.51,5.000000,,2013-03-17 12:01:00,
2013-03-17 08:22:00,45.0,40.0,-100.00,SW,215,3.0,5.0,83,0.00,,,0.51,5.000000,,2013-03-17 12:22:00,
2013-03-17 08:33:00,45.0,40.0,-100.00,SW,215,3.0,5.0,83,0.00,,,0.51,5.000000,,2013-03-17 12:33:00,
2013-03-17 08:43:00,45.0,40.0,-100.00,SW,215,3.0,5.0,83,0.00,,,0.51,5.000000,,2013-03-17 12:43:00,
2013-03-17 08:52:00,45.0,40.0,-100.00,SW,215,3.0,5.0,83,0.00,,,0.51,5.000000,,2013-03-17 12:52:00,
2013-03-17 09:01:00,47.0,41.0,-100.00,WSW,240,3.0,9.0,79,0.00,,,0.51,19.000000,,2013-03-17 13:01:00,
2013-03-17 09:33:00,47.0,41.0,-100.00,WSW,240,3.0,9.0,79,0.00,,,0.51,19.000000,,2013-03-17 13:33:00,
2013-03-17 09:43:00,47.0,41.0,-100.00,WSW,240,3.0,9.0,79,0.00,,,0.51,19.000000,,2013-03-17 13:43:00,
2013-03-17 09:52:00,47.0,41.0,-100.00,WSW,240,3.0,9.0,79,0.00,,,0.51,19.000000,,2013-03-17 13:52:00,
2013-03-17 10:01:00,47.0,41.0,-100.00,West,274,3.0,7.0,79,0.00,,,0.51,68.000000,,2013-03-17 14:01:00,
2013-03-17 10:23:00,47.0,41.0,-100.00,West,274,3.0,7.0,79,0.00,,,0.51,68.000000,,2013-03-17 14:23:00,
2013-03-17 10:33:00,47.0,41.0,-100.00,West,274,3.0,7.0,79,0.00,,,0.51,68.000000,,2013-03-17 14:33:00,
2013-03-17 10:43:00,47.0,41.0,-100.00,West,274,3.0,7.0,79,0.00,,,0.51,68.000000,,2013-03-17 14:43:00,
2013-03-17 10:53:00,47.0,41.0,-100.00,West,274,3.0,7.0,79,0.00,,,0.51,68.000000,,2013-03-17 14:53:00,
2013-03-17 11:01:00,45.0,38.0,-100.00,NNW,348,2.0,8.0,75,0.00,,,0.51,54.000000,,2013-03-17 15:01:00,
2013-03-17 11:33:00,45.0,38.0,-100.00,NNW,348,2.0,8.0,75,0.00,,,0.51,54.000000,,2013-03-17 15:33:00,
2013-03-17 11:43:00,45.0,38.0,-100.00,NNW,348,2.0,8.0,75,0.00,,,0.51,54.000000,,2013-03-17 15:43:00,
2013-03-17 11:53:00,45.0,38.0,-100.00,NNW,348,2.0,8.0,75,0.00,,,0.51,54.000000,,2013-03-17 15:53:00,
2013-03-17 12:01:00,45.0,36.0,-100.00,NW,323,3.0,5.0,70,0.00,,,0.51,68.000000,,2013-03-17 16:01:00,
2013-03-17 12:23:00,45.0,36.0,-100.00,NW,323,3.0,5.0,70,0.00,,,0.51,68.000000,,2013-03-17 16:23:00,
2013-03-17 12:34:00,45.0,36.0,-100.00,NW,323,3.0,5.0,70,0.00,,,0.51,68.000000,,2013-03-17 16:34:00,
2013-03-17 12:43:00,45.0,36.0,-100.00,NW,323,3.0,5.0,70,0.00,,,0.51,68.000000,,2013-03-17 16:43:00,
2013-03-17 12:52:00,45.0,36.0,-100.00,NW,323,3.0,5.0,70,0.00,,,0.51,68.000000,,2013-03-17 16:52:00,
2013-03-17 13:01:00,41.0,39.0,-100.00,NE,37,4.0,7.0,91,0.01,,,0.52,82.000000,,2013-03-17 17:01:00,
2013-03-17 13:33:00,41.0,39.0,-100.00,NE,37,4.0,7.0,91,0.01,,,0.52,82.000000,,2013-03-17 17:33:00,
2013-03-17 13:42:00,41.0,39.0,-100.00,NE,37,4.0,7.0,91,0.01,,,0.52,82.000000,,2013-03-17 17:42:00,
2013-03-17 13:53:00,41.0,39.0,-100.00,NE,37,4.0,7.0,91,0.01,,,0.52,82.000000,,2013-03-17 17:53:00,
2013-03-17 14:01:00,40.0,39.0,-100.00,NNE,31,4.0,7.0,95,0.00,,,0.52,70.000000,,2013-03-17 18:01:00,
2013-03-17 14:22:00,40.0,39.0,-100.00,NNE,31,4.0,7.0,95,0.00,,,0.52,70.000000,,2013-03-17 18:22:00,
2013-03-17 14:32:00,40.0,39.0,-100.00,NNE,31,4.0,7.0,95,0.00,,,0.52,70.000000,,2013-03-17 18:32:00,
2013-03-17 14:42:00,40.0,39.0,-100.00,NNE,31,4.0,7.0,95,0.00,,,0.52,70.000000,,2013-03-17 18:42:00,
2013-03-17 14:52:00,40.0,39.0,-100.00,NNE,31,4.0,7.0,95,0.00,,,0.52,70.000000,,2013-03-17 18:52:00,
2013-03-17 15:01:00,39.0,38.0,-100.00,ENE,66,3.0,6.0,95,0.00,,,0.52,58.000000,,2013-03-17 19:01:00,
2013-03-17 15:23:00,39.0,38.0,-100.00,ENE,66,3.0,6.0,95,0.00,,,0.52,58.000000,,2013-03-17 19:23:00,
2013-03-17 15:33:00,39.0,38.0,-100.00,ENE,66,3.0,6.0,95,0.00,,,0.52,58.000000,,2013-03-17 19:33:00,
2013-03-17 15:42:00,39.0,38.0,-100.00,ENE,66,3.0,6.0,95,0.00,,,0.52,58.000000,,2013-03-17 19:42:00,
2013-03-17 15:53:00,39.0,38.0,-100.00,ENE,66,3.0,6.0,95,0.00,,,0.52,58.000000,,2013-03-17 19:53:00,
2013-03-17 16:01:00,38.0,37.0,-100.00,NE,47,3.0,8.0,96,0.01,,,-99.99,68.000000,,2013-03-17 20:01:00,
2013-03-17 16:33:00,38.0,37.0,-100.00,NE,47,3.0,8.0,96,0.01,,,-99.99,68.000000,,2013-03-17 20:33:00,
2013-03-17 16:43:00,38.0,37.0,-100.00,NE,47,3.0,8.0,96,0.01,,,-99.99,68.000000,,2013-03-17 20:43:00,
2013-03-17 16:52:00,38.0,37.0,-100.00,NE,47,3.0,8.0,96,0.01,,,-99.99,68.000000,,2013-03-17 20:52:00,
2013-03-17 17:01:00,38.0,37.0,-100.00,NE,40,3.0,5.0,97,0.00,,,0.02,43.000000,,2013-03-17 21:01:00,
2013-03-17 17:33:00,38.0,37.0,-100.00,NE,40,3.0,5.0,97,0.00,,,0.02,43.000000,,2013-03-17 21:33:00,
2013-03-17 17:43:00,38.0,37.0,-100.00,NE,40,3.0,5.0,97,0.00,,,0.02,43.000000,,2013-03-17 21:43:00,
2013-03-17 17:52:00,38.0,37.0,-100.00,NE,40,3.0,5.0,97,0.00,,,0.02,43.000000,,2013-03-17 21:52:00,
2013-03-17 18:01:00,38.0,37.0,-100.00,NE,50,3.0,6.0,97,0.00,,,0.02,29.000000,,2013-03-17 22:01:00,
2013-03-17 18:33:00,38.0,37.0,-100.00,NE,50,3.0,6.0,97,0.00,,,0.02,29.000000,,2013-03-17 22:33:00,
2013-03-17 18:42:00,38.0,37.0,-100.00,NE,50,3.0,6.0,97,0.00,,,0.02,29.000000,,2013-03-17 22:42:00,
2013-03-17 18:53:00,38.0,37.0,-100.00,NE,50,3.0,6.0,97,0.00,,,0.02,29.000000,,2013-03-17 22:53:00,
2013-03-17 19:01:00,36.0,35.0,-100.00,NE,42,3.0,6.0,97,0.00,,,0.02,9.000000,,2013-03-17 23:01:00,
2013-03-17 19:23:00,36.0,35.0,-100.00,NE,42,3.0,6.0,97,0.00,,,0.02,9.000000,,2013-03-17 23:23:00,
2013-03-17 19:33:00,36.0,35.0,-100.00,NE,42,3.0,6.0,97,0.00,,,0.02,9.000000,,2013-03-17 23:33:00,
2013-03-17 19:43:00,36.0,35.0,-100.00,NE,42,3.0,6.0,97,0.00,,,0.02,9.000000,,2013-03-17 23:43:00,
2013-03-17 19:53:00,36.0,35.0,-100.00,NE,42,3.0,6.0,97,0.00,,,0.02,9.000000,,2013-03-17 23:53:00,
2013-03-17 20:01:00,35.0,34.0,-100.00,NE,44,4.0,5.0,96,0.04,,,0.06,1.000000,,2013-03-18 00:01:00,
2013-03-17 20:33:00,35.0,34.0,-100.00,NE,44,4.0,5.0,96,0.04,,,0.06,1.000000,,2013-03-18 00:33:00,
2013-03-17 20:42:00,35.0,34.0,-100.00,NE,44,4.0,5.0,96,0.04,,,0.06,1.000000,,2013-03-18 00:42:00,
2013-03-17 20:53:00,35.0,34.0,-100.00,NE,44,4.0,5.0,96,0.04,,,0.06,1.000000,,2013-03-18 00:53:00,
2013-03-17 21:01:00,34.0,34.0,-100.00,ENE,60,2.0,7.0,98,0.07,,,0.13,0.000000,,2013-03-18 01:01:00,
2013-03-17 21:33:00,34.0,34.0,-100.00,ENE,60,2.0,7.0,98,0.07,,,0.13,0.000000,,2013-03-18 01:33:00,
2013-03-17 21:42:00,34.0,34.0,-100.00,ENE,60,2.0,7.0,98,0.07,,,0.13,0.000000,,2013-03-18 01:42:00,
2013-03-17 21:52:00,34.0,34.0,-100.00,ENE,60,2.0,7.0,98,0.07,,,0.13,0.000000,,2013-03-18 01:52:00,
2013-03-17 22:01:00,33.0,32.0,-100.00,NE,53,2.0,6.0,98,0.04,,,0.17,0.000000,,2013-03-18 02:01:00,
2013-03-17 22:22:00,33.0,32.0,-100.00,NE,53,2.0,6.0,98,0.04,,,0.17,0.000000,,2013-03-18 02:22:00,
2013-03-17 22:32:00,33.0,32.0,-100.00,NE,53,2.0,6.0,98,0.04,,,0.17,0.000000,,2013-03-18 02:32:00,
2013-03-17 22:42:00,33.0,32.0,-100.00,NE,53,2.0,6.0,98,0.04,,,0.17,0.000000,,2013-03-18 02:42:00,
2013-03-17 22:52:00,33.0,32.0,-100.00,NE,53,2.0,6.0,98,0.04,,,0.17,0.000000,,2013-03-18 02:52:00,
2013-03-17 23:01:00,33.0,32.0,-100.00,ENE,63,2.0,5.0,98,0.03,,,0.20,0.000000,,2013-03-18 03:01:00,
2013-03-17 23:33:00,33.0,32.0,-100.00,ENE,63,2.0,5.0,98,0.03,,,0.20,0.000000,,2013-03-18 03:33:00,
2013-03-17 23:42:00,33.0,32.0,-100.00,ENE,63,2.0,5.0,98,0.03,,,0.20,0.000000,,2013-03-18 03:42:00,
2013-03-17 23:53:00,33.0,32.0,-100.00,ENE,63,2.0,5.0,98,0.03,,,0.20,0.000000,,2013-03-18 03:53:00,